createdAt,value
2022-10-11T00:09:31.819Z,101264.78
2022-10-11T00:19:35.055Z,101255.72
2022-10-11T00:29:38.613Z,101262.59
2022-10-11T00:39:41.602Z,101234.94
2022-10-11T00:49:49.884Z,101238.06
2022-10-11T00:59:55.074Z,101232.97
2022-10-11T01:09:58.576Z,101223.66
2022-10-11T01:20:01.489Z,101237.06
2022-10-11T01:30:22.837Z,101226.94
2022-10-11T01:40:33.969Z,101225.31
2022-10-11T01:50:47.756Z,101225.09
2022-10-11T02:01:18.519Z,101219.38
2022-10-11T02:11:33.270Z,101213.47
2022-10-11T02:21:39.704Z,101223.09
2022-10-11T02:31:45.352Z,101223.22
2022-10-11T02:41:51.723Z,101224.13
2022-10-11T02:51:58.827Z,101208.88
2022-10-11T03:02:01.771Z,101218.19
2022-10-11T03:12:04.877Z,101213.53
2022-10-11T03:22:07.740Z,101218.91
2022-10-11T03:32:10.663Z,101232.44
2022-10-11T03:42:14.572Z,101234.47
2022-10-11T03:52:17.423Z,101229.53
2022-10-11T04:02:21.326Z,101235.91
2022-10-11T04:12:24.239Z,101234.34
2022-10-11T04:22:27.146Z,101227.91
2022-10-11T04:32:30.047Z,101233.00
2022-10-11T04:42:34.553Z,101243.19
2022-10-11T04:52:37.527Z,101249.16
2022-10-11T05:02:40.668Z,101255.97
2022-10-11T05:12:44.115Z,101238.72
2022-10-11T05:22:47.813Z,101246.28
2022-10-11T05:32:50.923Z,101251.28
2022-10-11T05:42:53.905Z,101263.31
2022-10-11T05:52:57.358Z,101268.59
2022-10-11T06:03:00.176Z,101276.69
2022-10-11T06:13:03.609Z,101288.13
2022-10-11T06:23:06.500Z,101285.22
2022-10-11T06:33:09.447Z,101300.16
2022-10-11T06:43:12.579Z,101315.22
2022-10-11T06:53:15.482Z,101326.62
2022-10-11T07:03:18.392Z,101325.19
2022-10-11T07:13:21.365Z,101326.44
2022-10-11T07:23:24.792Z,101331.31
2022-10-11T07:33:27.649Z,101331.59
2022-10-11T07:43:30.490Z,101335.88
2022-10-11T07:53:48.080Z,101346.41
2022-10-11T08:03:51.670Z,101337.50
2022-10-11T08:13:54.950Z,101339.03
2022-10-11T08:23:57.913Z,101341.03
2022-10-11T08:34:00.764Z,101345.00
2022-10-11T08:44:20.447Z,101348.16
2022-10-11T08:54:44.645Z,101359.84
2022-10-11T09:04:51.646Z,101364.78
2022-10-11T09:15:17.060Z,101347.53
2022-10-11T09:25:32.548Z,101359.37
2022-10-11T09:35:47.733Z,101358.87
2022-10-11T09:45:50.966Z,101373.75
2022-10-11T10:05:37.577Z,101363.25
2022-10-11T10:15:46.523Z,101363.25
2022-10-11T10:25:54.666Z,101358.72
2022-10-11T10:36:15.468Z,101355.50
2022-10-11T10:46:33.418Z,101357.12
2022-10-11T10:57:11.047Z,101357.03
2022-10-11T11:07:20.223Z,101357.78
2022-10-11T11:17:26.085Z,101353.72
2022-10-11T11:27:34.869Z,101351.56
2022-10-11T11:37:41.851Z,101350.03
2022-10-11T11:47:52.092Z,101332.56
2022-10-11T11:58:32.753Z,101327.94
2022-10-11T12:08:36.487Z,101323.91
2022-10-11T12:18:54.628Z,101300.66
2022-10-11T12:29:35.538Z,101314.97
2022-10-11T12:39:46.692Z,101312.31
2022-10-11T12:50:03.954Z,101301.94
2022-10-11T13:00:30.953Z,101306.78
2022-10-11T13:10:49.107Z,101300.34
2022-10-11T13:20:52.547Z,101297.84
2022-10-11T13:30:58.369Z,101296.06
2022-10-11T13:41:05.181Z,101302.66
2022-10-11T13:51:17.957Z,101307.97
2022-10-11T14:01:28.209Z,101307.81
2022-10-11T14:11:37.156Z,101304.63
2022-10-11T14:21:45.763Z,101307.91
2022-10-11T14:31:49.628Z,101295.88
2022-10-11T14:41:53.049Z,101304.31
2022-10-11T14:51:59.221Z,101288.16
2022-10-11T15:02:02.764Z,101303.28
2022-10-11T15:12:06.329Z,101313.31
2022-10-11T15:22:09.255Z,101309.06
2022-10-11T15:32:12.083Z,101306.31
2022-10-11T15:42:15.128Z,101319.78
2022-10-11T15:52:17.961Z,101315.59
2022-10-11T16:02:20.888Z,101326.16
2022-10-11T16:12:23.955Z,101318.28
2022-10-11T16:22:27.264Z,101327.00
2022-10-11T16:32:33.049Z,101340.78
2022-10-11T16:42:37.707Z,101352.59
2022-10-11T16:52:40.610Z,101359.91
2022-10-11T17:02:43.978Z,101361.72
2022-10-11T17:12:50.177Z,101364.31
2022-10-11T17:22:53.697Z,101337.63
2022-10-11T17:32:56.609Z,101381.78
2022-10-11T17:43:00.393Z,101380.59
2022-10-11T17:53:03.965Z,101386.44
2022-10-11T18:03:07.303Z,101385.66
2022-10-11T18:13:15.241Z,101403.97
2022-10-11T18:23:19.464Z,101400.81
2022-10-11T18:33:22.516Z,101395.09
2022-10-11T18:43:25.499Z,101398.12
2022-10-11T18:53:29.105Z,101403.69
2022-10-11T19:03:35.343Z,101387.91
2022-10-11T19:13:39.667Z,101400.50
2022-10-11T19:23:45.280Z,101406.53
2022-10-11T19:33:49.677Z,101411.19
2022-10-11T19:43:58.281Z,101406.47
2022-10-11T19:54:05.219Z,101419.34
2022-10-11T20:04:22.618Z,101423.44
2022-10-11T20:14:34.162Z,101413.91
2022-10-11T20:24:37.081Z,101411.91
2022-10-11T20:34:40.025Z,101416.69
2022-10-11T20:44:43.770Z,101421.56
2022-10-11T20:54:46.650Z,101426.97
2022-10-11T21:04:49.596Z,101419.63
2022-10-11T21:14:52.519Z,101423.06
2022-10-11T21:24:55.443Z,101422.22
2022-10-11T21:34:58.446Z,101420.28
2022-10-11T21:45:01.290Z,101411.59
2022-10-11T21:55:04.489Z,101419.19
2022-10-11T22:05:07.632Z,101418.16
2022-10-11T22:15:10.754Z,101407.63
2022-10-11T22:25:13.909Z,101419.72
2022-10-11T22:35:16.916Z,101412.50
2022-10-11T22:45:19.914Z,101414.75
2022-10-11T22:55:23.617Z,101421.56
2022-10-11T23:05:26.845Z,101427.81
2022-10-11T23:15:29.820Z,101421.97
2022-10-11T23:25:32.790Z,101429.09
2022-10-11T23:35:35.853Z,101429.84
2022-10-11T23:45:38.775Z,101435.53
2022-10-11T23:55:42.350Z,101439.91
